Time;durP1;ratioP1;P1;durP2;ratioP2;P2;SDS_P1;SDS_P2;PMS_P1;PMS_P2;Temp;Humidity;BMP_temperature;BMP_pressure;BME280_temperature;BME280_humidity;BME280_pressure;Samples;Min_cycle;Max_cycle;Signal;HPM_P1;HPM_P2
2023/07/25 00:00:13;;;;;;;;;;;;;;;31.98;33.93;96944.69;5123090;27;20291;-91
2023/07/25 00:02:39;;;;;;;;;;;;;;;32.20;34.00;96937.47;5117193;28;20380;-91
2023/07/25 00:05:05;;;;;;;;;;;;;;;32.25;33.84;96948.06;5117149;28;19955;-91
2023/07/25 00:07:32;;;;;;;;;;;;;;;32.19;34.26;96939.53;5117305;27;19919;-91
2023/07/25 00:09:58;;;;;;;;;;;;;;;32.28;34.32;96947.03;5117024;28;19919;-91
2023/07/25 00:12:24;;;;;;;;;;;;;;;32.19;33.98;96941.59;5116485;28;20010;-90
2023/07/25 00:14:50;;;;;;;;;;;;;;;32.40;34.16;96952.19;5116894;28;20272;-90
2023/07/25 00:17:16;;;;;;;;;;;;;;;32.54;33.71;96967.44;5123835;27;19916;-90
2023/07/25 00:19:42;;;;;;;;;;;;;;;32.62;33.04;96962.78;5137522;27;19924;-90
2023/07/25 00:22:08;;;;;;;;;;;;;;;32.57;33.04;96964.34;5137548;27;19919;-90
2023/07/25 00:24:34;;;;;;;;;;;;;;;32.51;33.05;96963.56;5137704;27;19961;-91
2023/07/25 00:27:00;;;;;;;;;;;;;;;32.26;33.15;96963.81;5137428;27;19968;-91
2023/07/25 00:29:26;;;;;;;;;;;;;;;32.31;33.01;96966.66;5137688;27;19919;-91
2023/07/25 00:31:52;;;;;;;;;;;;;;;32.10;33.19;96965.34;5137557;27;19916;-91
2023/07/25 00:34:18;;;;;;;;;;;;;;;32.07;33.45;96964.31;5122173;27;19916;-91
2023/07/25 00:36:44;;;;;;;;;;;;;;;31.85;33.73;96961.44;5116806;28;20372;-91
2023/07/25 00:39:11;;;;;;;;;;;;;;;31.83;34.29;96964.03;5117062;28;19941;-91
2023/07/25 00:41:37;;;;;;;;;;;;;;;31.71;34.13;96950.31;5116972;28;20157;-91
2023/07/25 00:44:03;;;;;;;;;;;;;;;31.78;34.19;96946.97;5116864;28;20002;-90
2023/07/25 00:46:29;;;;;;;;;;;;;;;31.55;34.54;96948.22;5116810;28;20014;-91
2023/07/25 00:48:55;;;;;;;;;;;;;;;31.56;34.02;96947.69;5117155;28;19973;-91
2023/07/25 00:51:21;;;;;;;;;;;;;;;31.66;34.63;96951.84;5132099;27;19927;-90
2023/07/25 00:53:47;;;;;;;;;;;;;;;31.89;33.93;96947.75;5137299;27;19961;-90
2023/07/25 00:56:13;;;;;;;;;;;;;;;32.02;33.79;96953.72;5136868;27;20002;-91
2023/07/25 00:58:39;;;;;;;;;;;;;;;32.19;33.21;96952.97;5136918;27;20360;-90
2023/07/25 01:01:07;;;;;;;;;;;;;;;31.86;33.80;96951.63;5136867;27;19915;-90
2023/07/25 01:03:35;;;;;;;;;;;;;;;31.97;33.54;96950.91;5136868;27;19919;-90
2023/07/25 01:06:02;;;;;;;;;;;;;;;31.81;33.83;96951.63;5136426;27;19959;-90
2023/07/25 01:08:28;;;;;;;;;;;;;;;31.54;33.94;96946.66;5135719;27;19915;-90
2023/07/25 01:10:54;;;;;;;;;;;;;;;31.26;34.76;96952.22;5125936;27;20018;-90
2023/07/25 01:13:21;;;;;;;;;;;;;;;31.31;35.26;96952.25;5116380;28;19959;-90
2023/07/25 01:15:50;;;;;;;;;;;;;;;31.60;34.17;96951.06;5118446;27;20304;-90
2023/07/25 01:18:16;;;;;;;;;;;;;;;31.87;33.48;96958.88;5136638;27;19915;-90
2023/07/25 01:20:43;;;;;;;;;;;;;;;31.81;33.39;96963.75;5136683;27;19923;-90
2023/07/25 01:23:09;;;;;;;;;;;;;;;31.79;33.91;96963.47;5136436;27;20398;-90
2023/07/25 01:25:36;;;;;;;;;;;;;;;31.78;33.40;96956.28;5118748;27;19922;-90
2023/07/25 01:28:02;;;;;;;;;;;;;;;31.70;33.34;96963.72;5115692;28;19923;-90
2023/07/25 01:30:28;;;;;;;;;;;;;;;31.75;34.01;96962.97;5115493;28;19915;-90
2023/07/25 01:32:54;;;;;;;;;;;;;;;31.92;33.35;96963.00;5115500;28;20380;-90
2023/07/25 01:35:20;;;;;;;;;;;;;;;31.84;33.33;96964.78;5115502;28;19959;-90
2023/07/25 01:37:46;;;;;;;;;;;;;;;31.79;33.78;96960.66;5115608;28;19981;-90
2023/07/25 01:40:12;;;;;;;;;;;;;;;31.68;33.52;96960.63;5115333;28;19922;-90
2023/07/25 01:42:38;;;;;;;;;;;;;;;31.65;34.24;96967.31;5115875;27;19916;-89
2023/07/25 01:45:04;;;;;;;;;;;;;;;31.63;34.03;96955.72;5115165;28;19911;-90
2023/07/25 01:47:30;;;;;;;;;;;;;;;31.49;34.57;96970.13;5114879;28;19916;-90
2023/07/25 01:49:56;;;;;;;;;;;;;;;31.54;33.79;96969.34;5114839;28;19923;-89
2023/07/25 01:52:22;;;;;;;;;;;;;;;31.73;33.71;96964.78;5115160;28;19963;-90
2023/07/25 01:54:49;;;;;;;;;;;;;;;31.74;33.86;96960.66;5115130;28;19951;-90
2023/07/25 01:57:15;;;;;;;;;;;;;;;31.87;33.86;96970.22;5115101;27;19915;-90
2023/07/25 01:59:41;;;;;;;;;;;;;;;32.08;33.29;96976.47;5133055;27;19916;-90
2023/07/25 02:02:07;;;;;;;;;;;;;;;31.69;34.34;96982.06;5135998;27;19919;-90
2023/07/25 02:04:33;;;;;;;;;;;;;;;31.78;34.03;96987.50;5135940;27;19923;-89
2023/07/25 02:06:59;;;;;;;;;;;;;;;32.11;33.36;96983.19;5135140;27;19915;-90
2023/07/25 02:09:25;;;;;;;;;;;;;;;31.73;33.84;96985.41;5127281;27;20266;-90
2023/07/25 02:11:51;;;;;;;;;;;;;;;31.57;33.94;96996.72;5130124;27;19920;-89
2023/07/25 02:14:17;;;;;;;;;;;;;;;31.75;33.64;96999.09;5130414;27;19927;-89
2023/07/25 02:16:43;;;;;;;;;;;;;;;31.77;33.03;97002.19;5132641;27;19938;-90
2023/07/25 02:19:09;;;;;;;;;;;;;;;31.71;33.40;97007.09;5135216;27;19968;-90
2023/07/25 02:21:35;;;;;;;;;;;;;;;32.02;32.73;97006.94;5135068;27;19915;-90
2023/07/25 02:24:01;;;;;;;;;;;;;;;32.08;32.74;97004.88;5134882;27;19952;-90
2023/07/25 02:26:27;;;;;;;;;;;;;;;31.84;33.29;97008.16;5134878;27;20273;-90
2023/07/25 02:28:53;;;;;;;;;;;;;;;31.83;33.54;97017.19;5134949;27;20364;-90
2023/07/25 02:31:19;;;;;;;;;;;;;;;31.79;33.70;97008.91;5135067;27;19960;-90
2023/07/25 02:33:45;;;;;;;;;;;;;;;31.73;33.61;97008.13;5115831;27;19916;-90
2023/07/25 02:36:11;;;;;;;;;;;;;;;31.91;32.90;97007.66;5114111;28;20374;-90
2023/07/25 02:38:39;;;;;;;;;;;;;;;32.07;33.12;97000.47;5114075;28;20368;-90
2023/07/25 02:41:05;;;;;;;;;;;;;;;31.98;33.12;96992.19;5114504;28;19955;-91
2023/07/25 02:43:31;;;;;;;;;;;;;;;31.43;34.29;97001.31;5114511;28;19951;-90
2023/07/25 02:45:57;;;;;;;;;;;;;;;31.11;35.31;97003.47;5114497;28;20586;-90
2023/07/25 02:48:23;;;;;;;;;;;;;;;31.31;35.05;97000.47;5114125;28;20372;-90
2023/07/25 02:50:49;;;;;;;;;;;;;;;31.65;33.75;97004.22;5114621;28;19924;-90
2023/07/25 02:53:15;;;;;;;;;;;;;;;31.90;33.02;96994.72;5126326;27;19927;-90
2023/07/25 02:55:41;;;;;;;;;;;;;;;32.04;32.78;97004.34;5134637;28;20028;-90
2023/07/25 02:58:07;;;;;;;;;;;;;;;31.87;32.59;97004.28;5134682;28;20034;-91
2023/07/25 03:00:33;;;;;;;;;;;;;;;31.47;33.61;97004.69;5134621;27;20010;-90
2023/07/25 03:02:59;;;;;;;;;;;;;;;31.48;33.70;97006.25;5134840;28;20360;-91
2023/07/25 03:05:28;;;;;;;;;;;;;;;31.65;33.32;97018.41;5134667;28;19964;-91
2023/07/25 03:07:55;;;;;;;;;;;;;;;31.70;33.25;97014.81;5114083;28;20006;-91
2023/07/25 03:10:22;;;;;;;;;;;;;;;31.64;33.74;97005.53;5114316;28;20288;-90
2023/07/25 03:12:48;;;;;;;;;;;;;;;31.66;33.40;97008.63;5113787;28;20014;-90
2023/07/25 03:15:14;;;;;;;;;;;;;;;31.61;33.59;97008.59;5113875;27;19966;-90
2023/07/25 03:17:40;;;;;;;;;;;;;;;31.73;33.19;97002.44;5117001;28;20002;-91
2023/07/25 03:20:06;;;;;;;;;;;;;;;31.20;33.98;97008.91;5134423;28;20359;-90
2023/07/25 03:22:32;;;;;;;;;;;;;;;31.04;34.65;96995.44;5134467;27;19957;-91
2023/07/25 03:24:58;;;;;;;;;;;;;;;31.16;33.87;96997.03;5138087;27;19916;-91
2023/07/25 03:27:24;;;;;;;;;;;;;;;31.47;33.81;96996.16;5138673;27;19916;-90
2023/07/25 03:29:50;;;;;;;;;;;;;;;31.60;33.57;96995.72;5138479;27;19959;-90
2023/07/25 03:32:16;;;;;;;;;;;;;;;31.70;33.46;96988.50;5138354;27;20287;-90
2023/07/25 03:34:42;;;;;;;;;;;;;;;31.90;33.37;97000.41;5138434;27;20396;-91
2023/07/25 03:37:08;;;;;;;;;;;;;;;31.90;33.36;96989.03;5138136;27;20382;-91
2023/07/25 03:39:34;;;;;;;;;;;;;;;31.36;34.05;96987.59;5137267;27;19915;-90
2023/07/25 03:42:01;;;;;;;;;;;;;;;31.41;34.23;96995.34;5137969;27;19915;-90
2023/07/25 03:44:28;;;;;;;;;;;;;;;31.47;33.78;96996.16;5138138;27;19926;-90
2023/07/25 03:46:54;;;;;;;;;;;;;;;31.64;33.88;97001.91;5138068;27;20026;-90
2023/07/25 03:49:20;;;;;;;;;;;;;;;31.80;34.08;96999.13;5125894;27;20396;-91
2023/07/25 03:51:46;;;;;;;;;;;;;;;31.84;33.71;97008.16;5116927;28;19962;-90
2023/07/25 03:54:12;;;;;;;;;;;;;;;32.09;33.25;97003.59;5117173;28;19916;-91
2023/07/25 03:56:38;;;;;;;;;;;;;;;31.86;32.77;97002.72;5117822;27;19919;-91
2023/07/25 03:59:04;;;;;;;;;;;;;;;31.43;33.45;96998.50;5117286;28;19915;-91
2023/07/25 04:01:30;;;;;;;;;;;;;;;31.52;33.52;97003.94;5117297;28;19923;-91
2023/07/25 04:03:56;;;;;;;;;;;;;;;31.18;34.61;97002.97;5117248;28;19916;-90
2023/07/25 04:06:22;;;;;;;;;;;;;;;31.04;35.40;97008.84;5116899;28;19950;-90
2023/07/25 04:08:48;;;;;;;;;;;;;;;31.41;34.59;97004.63;5116991;28;20010;-90
2023/07/25 04:11:14;;;;;;;;;;;;;;;31.67;34.49;97013.00;5117064;28;19911;-90
2023/07/25 04:13:40;;;;;;;;;;;;;;;31.92;33.65;96997.84;5117364;27;19923;-91
2023/07/25 04:16:06;;;;;;;;;;;;;;;32.14;33.46;97002.03;5116884;28;20360;-91
2023/07/25 04:18:32;;;;;;;;;;;;;;;32.14;33.28;97007.72;5116711;28;19912;-90
2023/07/25 04:20:58;;;;;;;;;;;;;;;32.19;33.31;97010.56;5130465;27;19924;-91
2023/07/25 04:23:26;;;;;;;;;;;;;;;31.72;34.33;97003.72;5137329;27;20376;-90
2023/07/25 04:25:52;;;;;;;;;;;;;;;31.79;34.40;97008.13;5137073;27;19918;-91
2023/07/25 04:28:18;;;;;;;;;;;;;;;32.10;33.99;97013.66;5137098;27;19923;-91
2023/07/25 04:30:44;;;;;;;;;;;;;;;32.26;33.44;97015.72;5136314;27;19912;-90
2023/07/25 04:33:10;;;;;;;;;;;;;;;32.35;33.57;97006.19;5136503;27;20423;-91
2023/07/25 04:35:36;;;;;;;;;;;;;;;32.17;34.54;97013.13;5136745;27;19916;-90
2023/07/25 04:38:02;;;;;;;;;;;;;;;32.13;34.55;97009.00;5136917;27;19911;-90
2023/07/25 04:40:28;;;;;;;;;;;;;;;31.79;35.22;97008.13;5136868;27;19926;-90
2023/07/25 04:42:55;;;;;;;;;;;;;;;31.74;36.60;97021.00;5136948;27;20051;-90
2023/07/25 04:45:21;;;;;;;;;;;;;;;31.84;36.35;97013.03;5136650;27;19920;-90
2023/07/25 04:47:47;;;;;;;;;;;;;;;31.90;36.45;97017.44;5134458;27;20336;-90
2023/07/25 04:50:13;;;;;;;;;;;;;;;32.33;36.80;97025.78;5134895;27;19924;-90
2023/07/25 04:52:39;;;;;;;;;;;;;;;32.83;35.81;97014.44;5137005;27;19915;-91
2023/07/25 04:55:05;;;;;;;;;;;;;;;33.01;34.72;97011.84;5136674;27;19941;-90
2023/07/25 04:57:31;;;;;;;;;;;;;;;33.10;35.12;97014.41;5131513;27;19989;-90
2023/07/25 04:59:57;;;;;;;;;;;;;;;33.06;34.83;97019.59;5119272;27;20063;-90
2023/07/25 05:02:23;;;;;;;;;;;;;;;33.06;34.83;97016.75;5115802;28;19945;-90
2023/07/25 05:04:49;;;;;;;;;;;;;;;32.82;35.14;97027.88;5123782;27;19930;-90
2023/07/25 05:07:16;;;;;;;;;;;;;;;32.78;35.43;97018.06;5116170;28;19916;-90
2023/07/25 05:09:42;;;;;;;;;;;;;;;32.99;35.00;97025.78;5115860;28;19941;-90
2023/07/25 05:12:12;;;;;;;;;;;;;;;33.26;35.25;97029.88;5115751;28;19921;-90
2023/07/25 05:14:38;;;;;;;;;;;;;;;33.59;36.68;97026.16;5115809;28;19919;-90
2023/07/25 05:17:04;;;;;;;;;;;;;;;34.00;37.36;97027.75;5115187;28;19915;-89
2023/07/25 05:19:30;;;;;;;;;;;;;;;34.41;37.95;97010.66;5115418;28;20013;-90
2023/07/25 05:21:56;;;;;;;;;;;;;;;34.59;37.45;97012.06;5116015;28;19916;-90
2023/07/25 05:24:23;;;;;;;;;;;;;;;34.97;38.68;97016.66;5115337;28;19915;-90
2023/07/25 05:26:49;;;;;;;;;;;;;;;35.28;36.02;97023.88;5114079;28;19918;-89
2023/07/25 05:29:15;;;;;;;;;;;;;;;35.58;36.84;97013.16;5115314;28;19916;-89
2023/07/25 05:31:41;;;;;;;;;;;;;;;35.84;37.13;97009.69;5114995;28;19915;-89
2023/07/25 05:34:07;;;;;;;;;;;;;;;35.94;35.96;97005.88;5115116;28;20280;-90
2023/07/25 05:36:33;;;;;;;;;;;;;;;36.02;36.02;97001.13;5115299;28;19941;-90
2023/07/25 05:38:59;;;;;;;;;;;;;;;36.15;35.81;97011.09;5115887;27;19937;-89
2023/07/25 05:41:25;;;;;;;;;;;;;;;36.21;34.22;97003.19;5114972;28;19916;-90
2023/07/25 05:43:51;;;;;;;;;;;;;;;36.28;33.56;96996.84;5115028;28;19951;-89
2023/07/25 05:46:17;;;;;;;;;;;;;;;36.36;31.79;97001.38;5114145;28;20393;-89
2023/07/25 05:48:43;;;;;;;;;;;;;;;36.30;31.99;96997.84;5115102;28;20037;-90
2023/07/25 05:51:09;;;;;;;;;;;;;;;36.25;31.99;96998.69;5114419;27;19931;-90
2023/07/25 05:53:36;;;;;;;;;;;;;;;36.13;31.91;97005.91;5115212;28;19916;-90
2023/07/25 05:56:02;;;;;;;;;;;;;;;35.90;32.08;97005.44;5115446;28;19911;-90
2023/07/25 05:58:28;;;;;;;;;;;;;;;35.67;32.44;97009.13;5121282;27;20031;-91
2023/07/25 06:00:54;;;;;;;;;;;;;;;35.44;33.51;97008.63;5135168;27;19915;-91
2023/07/25 06:03:21;;;;;;;;;;;;;;;35.35;34.57;97006.91;5135251;27;20391;-90
2023/07/25 06:05:47;;;;;;;;;;;;;;;35.60;35.22;97009.75;5135318;27;20010;-90
2023/07/25 06:08:13;;;;;;;;;;;;;;;35.82;34.68;97012.31;5135198;27;19985;-90
2023/07/25 06:10:39;;;;;;;;;;;;;;;35.94;34.73;97011.59;5135047;27;19919;-90
2023/07/25 06:13:06;;;;;;;;;;;;;;;35.97;33.46;97009.75;5130230;27;20417;-91
2023/07/25 06:15:36;;;;;;;;;;;;;;;35.39;34.05;97003.75;5114345;28;19916;-91
2023/07/25 06:18:02;;;;;;;;;;;;;;;34.83;34.56;97009.25;5114395;28;19959;-91
2023/07/25 06:20:29;;;;;;;;;;;;;;;34.41;36.38;97026.97;5114200;28;19927;-91
2023/07/25 06:22:55;;;;;;;;;;;;;;;34.28;36.91;97023.97;5114284;28;20308;-91
2023/07/25 06:25:21;;;;;;;;;;;;;;;34.24;36.59;97017.78;5114563;28;20311;-91
2023/07/25 06:27:47;;;;;;;;;;;;;;;34.06;37.06;97017.13;5114248;28;20084;-91
2023/07/25 06:30:13;;;;;;;;;;;;;;;34.08;35.95;97017.38;5119584;27;20390;-91
2023/07/25 06:32:39;;;;;;;;;;;;;;;34.04;37.16;97019.72;5134761;27;19919;-91
2023/07/25 06:35:05;;;;;;;;;;;;;;;34.12;36.44;97027.72;5134814;28;19938;-91
2023/07/25 06:37:32;;;;;;;;;;;;;;;34.30;36.03;97025.00;5134692;27;20301;-91
2023/07/25 06:40:00;;;;;;;;;;;;;;;34.36;36.27;97020.00;5134578;27;20027;-91
2023/07/25 06:42:28;;;;;;;;;;;;;;;34.30;36.49;97016.44;5134660;27;20010;-91
2023/07/25 06:44:54;;;;;;;;;;;;;;;34.38;36.55;97011.69;5134422;27;19915;-91
2023/07/25 06:47:20;;;;;;;;;;;;;;;34.33;36.92;97014.63;5133771;27;20406;-91
2023/07/25 06:49:46;;;;;;;;;;;;;;;34.25;37.11;97011.56;5134445;28;19919;-91
2023/07/25 06:52:12;;;;;;;;;;;;;;;34.44;37.23;97014.53;5090455;28;19920;-91
2023/07/25 06:54:39;;;;;;;;;;;;;;;34.61;36.58;97018.03;5093601;28;19999;-92
2023/07/25 06:57:05;;;;;;;;;;;;;;;34.88;36.97;97013.38;5095499;28;19916;-92
2023/07/25 06:59:31;;;;;;;;;;;;;;;34.89;34.86;97003.50;5097588;28;19923;-92
2023/07/25 07:01:57;;;;;;;;;;;;;;;34.53;34.82;97000.72;5097749;28;19920;-92
2023/07/25 07:04:23;;;;;;;;;;;;;;;34.84;36.45;97007.19;5090673;28;19921;-92
2023/07/25 07:06:49;;;;;;;;;;;;;;;35.41;35.38;96996.19;5077467;28;20022;-91
2023/07/25 07:09:15;;;;;;;;;;;;;;;35.90;35.69;96998.94;5077291;28;20365;-91
2023/07/25 07:11:41;;;;;;;;;;;;;;;36.32;34.36;96992.34;5077393;28;19951;-91
2023/07/25 07:14:07;;;;;;;;;;;;;;;36.50;32.77;96985.09;5077028;28;19924;-91
2023/07/25 07:16:33;;;;;;;;;;;;;;;36.68;33.48;96987.09;5077309;28;20456;-91
2023/07/25 07:18:59;;;;;;;;;;;;;;;37.04;31.16;96990.38;5077328;28;19955;-91
2023/07/25 07:21:25;;;;;;;;;;;;;;;36.99;31.75;96983.44;5077623;28;19925;-91
2023/07/25 11:54:07;;;;;;;;;;;;;;;35.75;37.80;96772.97;5131931;27;19916;-87
2023/07/25 11:56:34;;;;;;;;;;;;;;;36.00;38.98;96774.38;5132113;27;19920;-90
2023/07/25 11:59:01;;;;;;;;;;;;;;;36.53;38.77;96763.75;5128243;28;20051;-91
2023/07/25 12:01:31;;;;;;;;;;;;;;;36.43;39.51;96754.81;5116084;28;19915;-90
2023/07/25 12:04:01;;;;;;;;;;;;;;;36.32;38.36;96748.56;5131638;27;20026;-91
2023/07/25 12:06:27;;;;;;;;;;;;;;;36.78;38.54;96752.84;5131692;27;19916;-91
2023/07/25 12:08:53;;;;;;;;;;;;;;;37.28;36.20;96753.25;5131796;27;20022;-90
2023/07/25 12:11:19;;;;;;;;;;;;;;;37.69;32.71;96752.56;5131496;27;19916;-90
2023/07/25 12:13:47;;;;;;;;;;;;;;;37.87;31.69;96756.56;5114579;27;19955;-90
2023/07/25 12:16:29;;;;;;;;;;;;;;;37.50;36.21;96751.22;5114622;28;19916;-88
2023/07/25 12:19:00;;;;;;;;;;;;;;;37.00;38.58;96750.28;5131594;27;19974;-89
2023/07/25 12:21:27;;;;;;;;;;;;;;;36.90;32.78;96760.63;5129918;28;20322;-90
2023/07/25 12:23:54;;;;;;;;;;;;;;;36.98;31.56;96749.28;5131235;27;19927;-88
2023/07/25 12:26:21;;;;;;;;;;;;;;;36.91;32.48;96747.88;5131235;27;19915;-88
2023/07/25 12:28:48;;;;;;;;;;;;;;;36.57;31.79;96747.06;5131125;27;20372;-89
2023/07/25 12:31:14;;;;;;;;;;;;;;;36.85;31.36;96740.72;5131200;27;19915;-90
2023/07/25 12:33:43;;;;;;;;;;;;;;;36.77;30.14;96737.75;5130238;27;20325;-88
2023/07/25 12:36:09;;;;;;;;;;;;;;;36.86;31.55;96728.72;5129728;28;19919;-89
2023/07/25 12:38:35;;;;;;;;;;;;;;;36.44;31.18;96736.34;5120891;27;19915;-88
2023/07/25 12:41:02;;;;;;;;;;;;;;;36.42;31.35;96735.38;5130884;27;20014;-89
2023/07/25 12:43:28;;;;;;;;;;;;;;;36.12;35.71;96741.41;5130736;27;19959;-89
2023/07/25 12:45:55;;;;;;;;;;;;;;;36.49;32.01;96746.94;5130837;27;19916;-90
2023/07/25 12:48:21;;;;;;;;;;;;;;;36.48;32.96;96747.50;5130789;27;19916;-89
2023/07/25 12:50:47;;;;;;;;;;;;;;;36.55;31.26;96749.69;5121923;27;19916;-89
2023/07/25 12:53:13;;;;;;;;;;;;;;;35.92;32.41;96762.78;5106903;28;19927;-89
2023/07/25 12:55:39;;;;;;;;;;;;;;;35.89;33.76;96768.84;5096351;28;19920;-90
2023/07/25 12:58:05;;;;;;;;;;;;;;;36.06;33.40;96769.31;5096468;28;20391;-90
2023/07/25 13:00:31;;;;;;;;;;;;;;;35.69;33.82;96772.28;5096546;28;19961;-90
2023/07/25 13:02:58;;;;;;;;;;;;;;;35.56;33.00;96775.91;5096299;28;19920;-91
2023/07/25 13:05:27;;;;;;;;;;;;;;;35.20;33.33;96768.91;5096410;28;19970;-92
2023/07/25 13:07:53;;;;;;;;;;;;;;;35.30;33.42;96770.81;5097160;28;19991;-92
2023/07/25 13:10:19;;;;;;;;;;;;;;;35.45;33.22;96763.84;5096120;28;19964;-93
2023/07/25 13:12:45;;;;;;;;;;;;;;;35.43;32.72;96767.25;5094869;28;19923;-93
2023/07/25 13:15:11;;;;;;;;;;;;;;;35.30;32.59;96764.34;5096200;28;19916;-93
2023/07/25 13:17:37;;;;;;;;;;;;;;;35.01;32.33;96766.03;5096085;28;19930;-93
2023/07/25 13:20:06;;;;;;;;;;;;;;;34.80;32.89;96772.84;5095185;28;19916;-92
2023/07/25 13:22:33;;;;;;;;;;;;;;;34.75;32.65;96777.31;5095889;28;19923;-92
2023/07/25 13:24:59;;;;;;;;;;;;;;;34.84;33.33;96788.34;5095050;28;19930;-89
2023/07/25 13:27:26;;;;;;;;;;;;;;;34.57;34.13;96767.41;5095911;28;19951;-89
2023/07/25 13:29:53;;;;;;;;;;;;;;;33.73;35.31;96777.31;5095943;28;19917;-90
2023/07/25 13:32:19;;;;;;;;;;;;;;;33.18;34.99;96776.44;5095822;28;19955;-90
2023/07/25 13:34:45;;;;;;;;;;;;;;;33.37;35.63;96776.56;5095881;28;19982;-92
2023/07/25 13:37:11;;;;;;;;;;;;;;;33.51;35.68;96786.81;5095699;28;19920;-92
2023/07/25 13:39:37;;;;;;;;;;;;;;;33.70;34.39;96786.94;5114285;28;19920;-92
2023/07/25 13:42:03;;;;;;;;;;;;;;;33.62;34.76;96794.50;5104689;27;19974;-92
2023/07/25 13:44:29;;;;;;;;;;;;;;;33.92;34.20;96789.56;5095724;28;19916;-93
2023/07/25 13:46:55;;;;;;;;;;;;;;;34.03;34.64;96798.03;5095639;28;19923;-93
2023/07/25 13:49:21;;;;;;;;;;;;;;;34.26;34.61;96799.34;5095436;28;19916;-93
2023/07/25 13:51:47;;;;;;;;;;;;;;;34.02;34.11;96799.31;5093949;28;19927;-92
2023/07/25 13:54:14;;;;;;;;;;;;;;;34.08;33.43;96802.91;5095314;28;19924;-92
2023/07/25 13:56:42;;;;;;;;;;;;;;;33.48;36.47;96809.84;5095635;28;19916;-92
2023/07/25 13:59:09;;;;;;;;;;;;;;;33.19;34.39;96808.50;5095950;28;19917;-93
2023/07/25 14:01:35;;;;;;;;;;;;;;;32.83;36.11;96818.25;5095396;28;19916;-92
2023/07/25 14:04:01;;;;;;;;;;;;;;;32.92;35.00;96826.47;5095204;28;19916;-91
2023/07/25 14:06:27;;;;;;;;;;;;;;;33.19;35.39;96837.72;5092953;28;19923;-91
2023/07/25 14:08:53;;;;;;;;;;;;;;;32.82;35.23;96845.13;5094900;28;19916;-93
2023/07/25 14:11:19;;;;;;;;;;;;;;;33.08;34.32;96848.38;5077082;28;19988;-91
2023/07/25 14:13:46;;;;;;;;;;;;;;;33.21;34.31;96848.59;5095180;28;20304;-91
2023/07/25 14:16:12;;;;;;;;;;;;;;;32.90;34.98;96861.13;5095648;28;19956;-90
2023/07/25 14:18:38;;;;;;;;;;;;;;;32.98;34.43;96864.97;5095035;28;20408;-92
2023/07/25 14:21:05;;;;;;;;;;;;;;;32.70;34.69;96867.13;5094926;28;19958;-91
2023/07/25 14:23:31;;;;;;;;;;;;;;;31.88;35.88;96880.16;5094394;28;19927;-90
2023/07/25 14:25:57;;;;;;;;;;;;;;;30.74;37.69;96881.59;5093901;28;19920;-91
2023/07/25 14:28:23;;;;;;;;;;;;;;;30.83;38.58;96880.59;5094718;28;20365;-89
2023/07/25 14:30:49;;;;;;;;;;;;;;;31.22;38.22;96878.75;5094721;28;20408;-89
2023/07/25 14:33:17;;;;;;;;;;;;;;;31.48;36.94;96878.56;5094026;28;19923;-89
2023/07/25 14:35:43;;;;;;;;;;;;;;;31.38;38.37;96880.06;5094765;28;20005;-90
2023/07/25 14:38:09;;;;;;;;;;;;;;;31.37;38.26;96870.75;5094457;28;19924;-89
2023/07/25 14:40:35;;;;;;;;;;;;;;;31.46;36.71;96869.00;5094507;28;19916;-90
2023/07/25 14:43:01;;;;;;;;;;;;;;;30.57;39.71;96866.56;5094711;28;19960;-92
2023/07/25 14:45:27;;;;;;;;;;;;;;;30.54;38.52;96859.09;5094528;28;19923;-93
2023/07/25 14:47:54;;;;;;;;;;;;;;;30.65;38.60;96866.88;5094383;28;20301;-91
2023/07/25 14:50:20;;;;;;;;;;;;;;;30.86;38.18;96873.16;5094956;28;19923;-93
2023/07/25 14:52:46;;;;;;;;;;;;;;;31.05;37.76;96875.06;5093978;28;19973;-93
2023/07/25 14:55:12;;;;;;;;;;;;;;;31.48;37.21;96867.22;5094393;28;19918;-93
2023/07/25 14:57:39;;;;;;;;;;;;;;;31.75;36.49;96863.63;5094363;28;19923;-94
2023/07/25 15:00:06;;;;;;;;;;;;;;;31.42;37.55;96866.38;5094072;28;19960;-94
2023/07/25 15:02:32;;;;;;;;;;;;;;;31.38;37.82;96857.34;5092764;28;19916;-93
2023/07/25 15:04:58;;;;;;;;;;;;;;;31.77;36.69;96852.53;5094123;28;19916;-94
2023/07/25 15:07:24;;;;;;;;;;;;;;;31.80;36.24;96839.34;5094453;28;19939;-93
2023/07/25 15:09:50;;;;;;;;;;;;;;;32.08;36.63;96840.91;5094104;28;20373;-94
2023/07/25 15:12:16;;;;;;;;;;;;;;;31.97;38.85;96843.00;5094188;28;19952;-93
2023/07/25 15:14:42;;;;;;;;;;;;;;;31.99;35.85;96834.75;5093979;28;19916;-94
2023/07/25 15:17:09;;;;;;;;;;;;;;;32.23;36.31;96823.56;5092563;28;19920;-93
2023/07/25 15:19:35;;;;;;;;;;;;;;;32.67;35.41;96823.47;5093867;28;19916;-94
2023/07/25 15:22:01;;;;;;;;;;;;;;;32.82;35.63;96826.00;5094541;28;20358;-93
2023/07/25 15:24:27;;;;;;;;;;;;;;;32.76;35.61;96822.41;5108018;28;19939;-93
2023/07/25 15:26:55;;;;;;;;;;;;;;;32.34;37.01;96822.78;5114142;28;20009;-93
2023/07/25 15:29:21;;;;;;;;;;;;;;;31.73;37.00;96828.53;5114414;28;19920;-93
2023/07/25 15:31:47;;;;;;;;;;;;;;;31.87;39.33;96824.66;5114248;28;19939;-92
2023/07/25 15:34:13;;;;;;;;;;;;;;;31.75;36.19;96823.88;5112673;28;19968;-93
2023/07/25 15:36:39;;;;;;;;;;;;;;;31.56;37.52;96837.03;5113854;28;20002;-93
2023/07/25 15:39:05;;;;;;;;;;;;;;;31.81;36.60;96841.66;5113863;28;20386;-92
2023/07/25 15:41:31;;;;;;;;;;;;;;;31.52;36.92;96830.84;5113330;28;20068;-92
2023/07/25 15:43:57;;;;;;;;;;;;;;;31.80;36.14;96831.63;5113972;28;19938;-93
2023/07/25 15:46:23;;;;;;;;;;;;;;;31.84;36.34;96846.31;5113930;28;20362;-91
2023/07/25 15:48:49;;;;;;;;;;;;;;;32.14;36.53;96840.91;5114016;28;19926;-91
2023/07/25 15:51:16;;;;;;;;;;;;;;;32.56;35.15;96836.94;5116234;28;19916;-92
2023/07/25 15:53:42;;;;;;;;;;;;;;;32.66;34.86;96843.91;5113738;28;19928;-93
2023/07/25 15:56:08;;;;;;;;;;;;;;;32.50;34.60;96841.88;5114032;28;20359;-93
2023/07/25 15:58:34;;;;;;;;;;;;;;;32.26;34.70;96833.13;5113256;28;19915;-93
2023/07/25 16:01:00;;;;;;;;;;;;;;;31.99;35.19;96837.56;5113798;28;20334;-94
2023/07/25 16:03:26;;;;;;;;;;;;;;;31.94;35.34;96844.78;5113789;28;20023;-93
2023/07/25 16:05:52;;;;;;;;;;;;;;;31.19;38.89;96836.44;5113588;28;20375;-91
2023/07/25 16:08:18;;;;;;;;;;;;;;;31.39;36.83;96841.91;5113675;28;19916;-93
2023/07/25 16:10:45;;;;;;;;;;;;;;;30.95;38.19;96838.97;5113648;28;20013;-93
2023/07/25 16:13:14;;;;;;;;;;;;;;;31.36;36.85;96838.03;5113970;28;19916;-93
2023/07/25 16:15:43;;;;;;;;;;;;;;;31.60;35.57;96837.53;5113056;28;20001;-93
2023/07/25 16:18:09;;;;;;;;;;;;;;;31.25;36.31;96846.50;5113332;28;19919;-93
2023/07/25 16:20:35;;;;;;;;;;;;;;;31.46;36.19;96844.22;5113718;28;19927;-93
2023/07/25 16:23:01;;;;;;;;;;;;;;;31.19;36.60;96850.63;5103149;28;19931;-93
2023/07/25 16:25:27;;;;;;;;;;;;;;;31.40;35.81;96841.38;5093471;28;19916;-93
2023/07/25 16:27:53;;;;;;;;;;;;;;;31.65;35.47;96839.59;5093648;28;20295;-93
2023/07/25 16:30:19;;;;;;;;;;;;;;;31.77;35.49;96854.56;5096692;28;19920;-93
2023/07/25 16:32:45;;;;;;;;;;;;;;;31.95;35.19;96842.72;5097109;28;19924;-93
2023/07/25 16:35:11;;;;;;;;;;;;;;;32.00;34.81;96839.09;5097145;28;19966;-93
2023/07/25 16:37:39;;;;;;;;;;;;;;;32.16;34.24;96837.56;5099183;28;19920;-92
2023/07/25 16:40:05;;;;;;;;;;;;;;;32.26;34.72;96833.91;5117489;28;19923;-93
2023/07/25 16:42:31;;;;;;;;;;;;;;;32.48;34.35;96827.41;5117056;28;20388;-93
2023/07/25 16:44:58;;;;;;;;;;;;;;;32.49;34.33;96828.94;5115921;28;19966;-93
2023/07/25 16:47:24;;;;;;;;;;;;;;;32.67;34.05;96829.16;5116907;28;19919;-94
2023/07/25 16:49:50;;;;;;;;;;;;;;;32.82;33.74;96836.59;5116233;28;19916;-94
2023/07/25 16:52:16;;;;;;;;;;;;;;;32.89;33.29;96838.88;5116799;28;19947;-94
2023/07/25 16:54:43;;;;;;;;;;;;;;;32.74;34.12;96834.28;5117071;28;19916;-94
2023/07/25 16:57:09;;;;;;;;;;;;;;;32.94;33.93;96836.03;5117043;28;19998;-94
2023/07/25 16:59:35;;;;;;;;;;;;;;;32.94;33.83;96832.41;5115568;28;20001;-94
2023/07/25 17:02:01;;;;;;;;;;;;;;;33.13;33.15;96839.06;5116541;28;20028;-94
2023/07/25 17:04:27;;;;;;;;;;;;;;;33.30;33.59;96851.88;5117091;28;19924;-94
2023/07/25 17:06:53;;;;;;;;;;;;;;;33.37;32.90;96851.31;5115871;28;19912;-94
2023/07/25 17:09:19;;;;;;;;;;;;;;;33.46;32.87;96840.91;5116794;28;20010;-94
2023/07/25 17:11:45;;;;;;;;;;;;;;;33.36;33.16;96840.47;5116721;28;19912;-94